createdAt,value
2019-06-20T00:00:52.947Z,94.40
2019-06-20T00:03:25.449Z,94.30
2019-06-20T00:05:56.251Z,94.50
2019-06-20T00:08:27.599Z,94.60
2019-06-20T00:10:58.660Z,94.70
2019-06-20T00:13:30.465Z,94.90
2019-06-20T00:16:01.792Z,94.90
2019-06-20T00:18:32.838Z,95.10
2019-06-20T00:21:04.078Z,95.20
2019-06-20T00:23:35.226Z,95.30
2019-06-20T00:26:06.397Z,95.50
2019-06-20T00:28:37.828Z,95.40
2019-06-20T00:31:08.794Z,95.50
2019-06-20T00:33:39.772Z,95.40
2019-06-20T00:36:10.736Z,95.50
2019-06-20T00:38:42.434Z,95.60
2019-06-20T00:41:14.460Z,95.60
2019-06-20T00:43:45.679Z,95.60
2019-06-20T00:46:16.945Z,95.60
2019-06-20T00:48:49.339Z,95.60
2019-06-20T00:51:20.693Z,95.70
2019-06-20T00:53:52.012Z,95.90
2019-06-20T00:56:23.397Z,95.80
2019-06-20T00:58:55.138Z,95.90
2019-06-20T01:01:26.180Z,95.90
2019-06-20T01:03:57.917Z,95.90
2019-06-20T01:06:28.731Z,95.90
2019-06-20T01:09:00.527Z,95.80
2019-06-20T01:11:32.724Z,95.80
2019-06-20T01:14:03.896Z,95.80
2019-06-20T01:16:34.696Z,95.80
2019-06-20T01:19:06.761Z,95.80
2019-06-20T01:21:37.571Z,95.80
2019-06-20T01:24:09.219Z,95.80
2019-06-20T01:26:40.974Z,95.90
2019-06-20T01:29:12.365Z,96.20
2019-06-20T01:31:43.672Z,96.00
2019-06-20T01:34:15.011Z,96.20
2019-06-20T01:36:46.046Z,96.50
2019-06-20T01:39:17.144Z,96.60
2019-06-20T01:41:47.893Z,96.90
2019-06-20T01:44:19.662Z,96.90
2019-06-20T01:46:50.961Z,97.00
2019-06-20T01:49:21.777Z,97.10
2019-06-20T01:51:53.232Z,97.30
2019-06-20T01:54:24.566Z,97.40
2019-06-20T01:56:55.992Z,97.40
2019-06-20T01:59:27.262Z,97.40
2019-06-20T02:01:58.025Z,97.40
2019-06-20T02:04:29.078Z,97.30
2019-06-20T02:07:00.131Z,97.40
2019-06-20T02:09:31.593Z,97.40
2019-06-20T02:12:02.425Z,97.20
2019-06-20T02:14:33.700Z,97.10
2019-06-20T02:17:04.813Z,97.10
2019-06-20T02:19:35.547Z,97.00
2019-06-20T02:22:06.330Z,97.00
2019-06-20T02:24:37.376Z,96.80
2019-06-20T02:27:08.738Z,96.70
2019-06-20T02:29:39.756Z,96.80
2019-06-20T02:32:10.785Z,97.00
2019-06-20T02:34:41.777Z,97.00
2019-06-20T02:37:12.741Z,97.10
2019-06-20T02:39:44.191Z,97.20
2019-06-20T02:42:15.575Z,97.40
2019-06-20T02:44:47.020Z,97.50
2019-06-20T02:47:18.765Z,97.80
2019-06-20T02:49:50.301Z,98.20
2019-06-20T02:52:23.575Z,98.40
2019-06-20T02:54:54.992Z,98.50
2019-06-20T02:57:26.579Z,98.70
2019-06-20T02:59:59.196Z,98.90
2019-06-20T03:02:30.189Z,99.00
2019-06-20T03:05:01.913Z,99.10
2019-06-20T03:07:33.558Z,99.50
2019-06-20T03:10:05.336Z,99.70
2019-06-20T03:12:36.756Z,99.80
2019-06-20T03:15:08.719Z,99.60
2019-06-20T03:17:40.331Z,99.50
2019-06-20T03:20:12.253Z,99.40
2019-06-20T03:22:43.578Z,99.30
2019-06-20T03:25:16.857Z,99.30
2019-06-20T03:27:48.333Z,99.40
2019-06-20T03:30:20.144Z,99.60
2019-06-20T03:32:51.644Z,99.90
2019-06-20T03:35:22.979Z,99.90
2019-06-20T03:37:54.123Z,99.90
2019-06-20T03:40:25.273Z,99.90
2019-06-20T03:42:56.617Z,99.90
2019-06-20T03:45:28.077Z,99.90
2019-06-20T03:47:59.161Z,99.90
2019-06-20T03:50:30.451Z,99.90
2019-06-20T03:53:01.528Z,99.90
2019-06-20T03:55:33.395Z,99.90
2019-06-20T03:58:04.603Z,99.90
2019-06-20T04:00:37.112Z,99.90
2019-06-20T04:03:08.347Z,99.90
2019-06-20T04:05:39.282Z,99.90
2019-06-20T04:08:10.813Z,99.90
2019-06-20T04:10:42.393Z,99.90
2019-06-20T04:13:13.901Z,99.90
2019-06-20T04:15:45.245Z,99.90
2019-06-20T04:18:16.633Z,99.90
2019-06-20T04:20:47.915Z,99.90
2019-06-20T04:23:18.885Z,99.90
2019-06-20T04:25:49.856Z,99.90
2019-06-20T04:28:21.535Z,99.90
2019-06-20T04:30:52.963Z,99.90
2019-06-20T04:33:24.263Z,99.90
2019-06-20T04:35:55.847Z,99.90
2019-06-20T04:38:26.917Z,99.90
2019-06-20T04:40:58.310Z,99.90
2019-06-20T04:43:30.520Z,99.90
2019-06-20T04:46:10.324Z,99.90
2019-06-20T04:48:41.650Z,99.90
2019-06-20T04:51:12.740Z,99.90
2019-06-20T04:53:44.082Z,99.90
2019-06-20T04:56:14.991Z,99.90
2019-06-20T04:58:46.066Z,99.90
2019-06-20T05:01:17.352Z,99.90
2019-06-20T05:03:48.764Z,99.90
2019-06-20T05:06:20.320Z,99.90
2019-06-20T05:08:51.615Z,99.90
2019-06-20T05:11:22.783Z,99.90
2019-06-20T05:13:54.331Z,99.90
2019-06-20T05:16:25.530Z,99.90
2019-06-20T05:18:56.564Z,99.90
2019-06-20T05:21:28.061Z,99.90
2019-06-20T05:23:59.589Z,99.90
2019-06-20T05:26:30.883Z,99.90
2019-06-20T05:29:05.395Z,99.90
2019-06-20T05:31:35.482Z,99.90
2019-06-20T05:34:06.599Z,99.90
2019-06-20T05:36:37.878Z,99.90
2019-06-20T05:39:09.060Z,99.90
2019-06-20T05:41:40.830Z,99.90
2019-06-20T05:44:12.026Z,99.90
2019-06-20T05:46:42.795Z,99.90
2019-06-20T05:49:14.290Z,99.90
2019-06-20T05:51:45.257Z,99.90
2019-06-20T05:54:16.840Z,99.90
2019-06-20T05:56:47.616Z,99.90
2019-06-20T05:59:19.445Z,99.90
2019-06-20T06:01:50.479Z,99.90
2019-06-20T06:04:21.525Z,99.90
2019-06-20T06:06:52.866Z,99.90
2019-06-20T06:09:23.868Z,99.90
2019-06-20T06:11:54.901Z,99.90
2019-06-20T06:14:26.383Z,99.90
2019-06-20T06:16:57.428Z,99.90
2019-06-20T06:19:28.747Z,99.90
2019-06-20T06:21:59.525Z,99.90
2019-06-20T06:24:30.961Z,99.90
2019-06-20T06:27:02.223Z,99.90
2019-06-20T06:29:33.223Z,99.90
2019-06-20T06:32:04.392Z,99.90
2019-06-20T06:34:35.946Z,99.90
2019-06-20T06:37:06.874Z,99.90
2019-06-20T06:39:38.273Z,99.90
2019-06-20T06:42:09.434Z,99.90
2019-06-20T06:44:40.838Z,99.90
2019-06-20T06:47:12.002Z,99.90
2019-06-20T06:49:43.071Z,99.90
2019-06-20T06:52:14.661Z,99.90
2019-06-20T06:54:45.422Z,99.90
2019-06-20T06:57:17.883Z,99.90
2019-06-20T06:59:48.681Z,99.90
2019-06-20T07:02:20.058Z,99.90
2019-06-20T07:04:51.406Z,99.90
2019-06-20T07:07:22.435Z,99.90
2019-06-20T07:09:53.573Z,99.90
2019-06-20T07:12:24.828Z,99.90
2019-06-20T07:14:55.805Z,99.90
2019-06-20T07:17:26.794Z,99.90
2019-06-20T07:19:57.513Z,99.90
2019-06-20T07:22:28.979Z,99.90
2019-06-20T07:24:59.938Z,99.90
2019-06-20T07:27:31.153Z,99.90
2019-06-20T07:30:02.351Z,99.90
2019-06-20T07:32:33.419Z,99.60
2019-06-20T07:35:04.672Z,99.90
2019-06-20T07:37:35.421Z,99.90
2019-06-20T07:40:08.262Z,99.90
2019-06-20T07:42:39.900Z,99.90
2019-06-20T07:45:11.795Z,99.90
2019-06-20T07:47:43.082Z,99.80
2019-06-20T07:50:14.748Z,99.10
2019-06-20T07:53:00.820Z,99.00
2019-06-20T07:55:19.493Z,99.10
2019-06-20T07:57:50.569Z,98.80
2019-06-20T08:00:21.841Z,98.30
2019-06-20T08:02:52.890Z,98.40
2019-06-20T08:05:24.159Z,98.10
2019-06-20T08:07:55.172Z,96.40
2019-06-20T08:10:27.637Z,96.00
2019-06-20T08:12:59.108Z,96.50
2019-06-20T08:15:30.528Z,95.70
2019-06-20T08:18:02.025Z,95.70
2019-06-20T08:20:33.163Z,95.60
2019-06-20T08:23:04.197Z,95.30
2019-06-20T08:25:35.140Z,96.00
2019-06-20T08:28:06.638Z,96.40
2019-06-20T08:30:38.361Z,96.50
2019-06-20T08:33:12.151Z,96.70
2019-06-20T08:35:42.857Z,96.80
2019-06-20T08:38:14.784Z,97.10
2019-06-20T08:40:45.528Z,96.70
2019-06-20T08:43:17.224Z,97.30
2019-06-20T08:45:48.190Z,97.20
2019-06-20T08:48:19.417Z,97.40
2019-06-20T08:50:50.182Z,97.40
2019-06-20T08:53:21.274Z,97.10
2019-06-20T08:55:52.289Z,97.00
2019-06-20T08:58:23.510Z,96.80
2019-06-20T09:00:55.982Z,96.10
2019-06-20T09:03:27.950Z,96.10
2019-06-20T09:05:59.725Z,96.30
2019-06-20T09:08:31.166Z,96.40
2019-06-20T09:11:02.135Z,96.50
2019-06-20T09:13:33.367Z,96.50
2019-06-20T09:16:04.498Z,95.90
2019-06-20T09:18:35.909Z,95.40
2019-06-20T09:21:06.750Z,95.20
2019-06-20T09:23:38.397Z,95.20
2019-06-20T09:26:09.784Z,95.10
2019-06-20T09:28:40.636Z,95.30
2019-06-20T09:31:12.210Z,94.30
2019-06-20T09:33:43.290Z,94.70
2019-06-20T09:36:14.629Z,94.10
2019-06-20T09:38:45.986Z,94.20
2019-06-20T09:41:16.738Z,94.30
2019-06-20T09:43:47.755Z,93.50
2019-06-20T09:46:18.630Z,92.70
2019-06-20T09:48:51.100Z,93.10
2019-06-20T09:51:22.999Z,92.30
2019-06-20T09:53:53.917Z,92.10
2019-06-20T09:56:25.200Z,91.40
2019-06-20T09:58:55.928Z,90.90
2019-06-20T10:01:26.963Z,90.80
2019-06-20T10:03:58.284Z,89.60
2019-06-20T10:06:29.676Z,89.50
2019-06-20T10:09:01.091Z,87.30
2019-06-20T10:11:33.804Z,87.30
2019-06-20T10:14:05.274Z,87.80
2019-06-20T10:16:45.691Z,87.20
2019-06-20T10:19:09.704Z,86.90
2019-06-20T10:21:40.745Z,86.30
2019-06-20T10:24:11.868Z,86.20
2019-06-20T10:26:45.078Z,86.50
2019-06-20T10:29:16.858Z,85.80
2019-06-20T10:31:49.023Z,86.40
2019-06-20T10:34:20.031Z,85.90
2019-06-20T10:36:52.416Z,87.10
2019-06-20T10:39:23.569Z,87.30
2019-06-20T10:41:54.406Z,87.30
2019-06-20T10:44:25.607Z,85.60
2019-06-20T10:46:56.853Z,86.00
2019-06-20T10:49:27.812Z,87.00
2019-06-20T10:51:58.783Z,86.50
2019-06-20T10:54:29.525Z,86.70
2019-06-20T10:57:00.530Z,87.70
2019-06-20T10:59:32.136Z,87.40
2019-06-20T11:02:06.481Z,87.50
2019-06-20T11:04:36.404Z,87.80
2019-06-20T11:07:07.495Z,87.80
2019-06-20T11:09:39.624Z,87.30
2019-06-20T11:12:10.979Z,87.90
2019-06-20T11:14:42.173Z,87.90
2019-06-20T11:17:13.249Z,87.70
2019-06-20T11:19:45.769Z,87.50
2019-06-20T11:22:17.205Z,88.40
2019-06-20T11:24:48.527Z,88.30
2019-06-20T11:27:19.862Z,88.00
2019-06-20T11:29:51.086Z,86.90
2019-06-20T11:32:22.655Z,87.50
2019-06-20T11:34:53.419Z,86.80
2019-06-20T11:37:24.729Z,87.10
2019-06-20T11:39:56.299Z,86.70
2019-06-20T11:42:27.813Z,86.40
2019-06-20T11:44:58.955Z,86.00
2019-06-20T11:47:30.611Z,87.40
2019-06-20T11:50:01.340Z,86.80
2019-06-20T11:52:35.950Z,86.20
2019-06-20T11:55:05.865Z,87.90
2019-06-20T11:57:37.995Z,87.60
2019-06-20T12:00:09.676Z,87.80
2019-06-20T12:02:42.770Z,87.70
2019-06-20T12:05:13.975Z,86.80
2019-06-20T12:07:47.160Z,85.90
2019-06-20T12:10:19.236Z,86.70
2019-06-20T12:12:50.014Z,86.40
2019-06-20T12:15:21.363Z,86.80
2019-06-20T12:17:52.121Z,87.20
2019-06-20T12:20:24.971Z,86.90
2019-06-20T12:22:56.184Z,84.80
2019-06-20T12:25:29.061Z,85.30
2019-06-20T12:28:00.579Z,84.90
2019-06-20T12:30:31.635Z,84.70
2019-06-20T12:33:03.098Z,82.60
2019-06-20T12:35:34.817Z,82.60
2019-06-20T12:38:05.879Z,83.50
2019-06-20T12:40:39.141Z,81.50
2019-06-20T12:43:09.750Z,81.10
2019-06-20T12:45:42.876Z,81.40
2019-06-20T12:48:15.584Z,81.10
2019-06-20T12:50:47.611Z,78.30
2019-06-20T12:53:18.682Z,79.60
2019-06-20T12:55:50.749Z,76.80
2019-06-20T12:58:21.988Z,77.40
2019-06-20T13:00:53.048Z,78.40
2019-06-20T13:03:23.876Z,77.20
2019-06-20T13:05:54.820Z,76.60
2019-06-20T13:08:26.055Z,76.40
2019-06-20T13:10:57.037Z,75.30
2019-06-20T13:13:28.077Z,75.40
2019-06-20T13:15:59.055Z,75.20
2019-06-20T13:18:30.576Z,74.50
2019-06-20T13:21:01.768Z,75.00
2019-06-20T13:23:33.126Z,75.40
2019-06-20T13:26:04.270Z,73.90
2019-06-20T13:28:51.009Z,74.50
2019-06-20T13:31:09.517Z,75.80
2019-06-20T13:33:42.357Z,76.50
2019-06-20T13:36:13.126Z,75.90
2019-06-20T13:38:44.771Z,76.70
2019-06-20T13:41:15.775Z,76.90
2019-06-20T13:43:47.173Z,77.40
2019-06-20T13:46:18.354Z,78.40
2019-06-20T13:48:49.980Z,77.20
2019-06-20T13:51:21.886Z,77.20
2019-06-20T13:53:52.860Z,77.80
2019-06-20T13:56:23.927Z,79.00
2019-06-20T13:58:55.250Z,79.60
2019-06-20T14:01:26.868Z,79.30
2019-06-20T14:03:58.407Z,79.30
2019-06-20T14:06:29.821Z,79.00
2019-06-20T14:09:01.410Z,79.40
2019-06-20T14:11:34.396Z,78.90
2019-06-20T14:14:05.746Z,79.10
2019-06-20T14:16:37.606Z,78.60
2019-06-20T14:19:08.427Z,78.60
2019-06-20T14:21:39.721Z,76.40
2019-06-20T14:24:10.819Z,74.00
2019-06-20T14:26:44.737Z,74.50
2019-06-20T14:29:15.131Z,75.20
2019-06-20T14:31:47.245Z,75.00
2019-06-20T14:34:18.578Z,76.00
2019-06-20T14:36:50.917Z,77.00
2019-06-20T14:39:22.397Z,75.90
2019-06-20T14:41:55.240Z,75.70
2019-06-20T14:44:26.555Z,76.10
2019-06-20T14:46:59.382Z,76.30
2019-06-20T14:49:31.051Z,74.90
2019-06-20T14:52:02.056Z,73.70
2019-06-20T14:54:33.043Z,73.30
2019-06-20T14:57:03.859Z,73.50
2019-06-20T14:59:35.493Z,74.60
2019-06-20T15:02:07.014Z,74.90
2019-06-20T15:04:38.712Z,75.30
2019-06-20T15:07:09.473Z,74.30
2019-06-20T15:09:41.337Z,74.20
2019-06-20T15:12:12.659Z,73.70
2019-06-20T15:14:44.482Z,73.40
2019-06-20T15:17:16.718Z,73.50
2019-06-20T15:19:49.449Z,74.10
2019-06-20T15:22:20.733Z,73.00
2019-06-20T15:24:53.610Z,73.80
2019-06-20T15:27:24.818Z,72.70
2019-06-20T15:29:56.565Z,72.80
2019-06-20T15:32:27.252Z,72.60
2019-06-20T15:35:01.697Z,73.20
2019-06-20T15:37:31.368Z,73.30
2019-06-20T15:40:02.537Z,73.70
2019-06-20T15:42:34.390Z,73.50
2019-06-20T15:45:05.774Z,73.60
2019-06-20T15:47:37.079Z,73.20
2019-06-20T15:50:08.372Z,74.40
2019-06-20T15:52:40.405Z,75.00
2019-06-20T15:55:12.089Z,75.40
2019-06-20T15:57:43.356Z,75.90
2019-06-20T16:00:15.054Z,76.20
2019-06-20T16:02:46.556Z,76.70
2019-06-20T16:05:18.680Z,77.20
2019-06-20T16:07:49.904Z,77.70
2019-06-20T16:10:21.368Z,77.80
2019-06-20T16:12:52.736Z,78.40
2019-06-20T16:15:24.434Z,78.90
2019-06-20T16:17:55.690Z,79.50
2019-06-20T16:20:26.738Z,79.90
2019-06-20T16:22:57.507Z,80.30
2019-06-20T16:25:28.962Z,80.90
2019-06-20T16:28:00.069Z,80.80
2019-06-20T16:30:33.727Z,81.30
2019-06-20T16:33:04.717Z,81.40
2019-06-20T16:35:36.902Z,81.40
2019-06-20T16:38:08.064Z,82.10
2019-06-20T16:40:57.063Z,82.50
2019-06-20T16:43:28.043Z,83.30
2019-06-20T16:45:59.060Z,83.50
2019-06-20T16:48:30.897Z,83.70
2019-06-20T16:51:03.451Z,84.00
2019-06-20T16:53:34.521Z,84.80
2019-06-20T16:56:05.706Z,85.20
2019-06-20T16:58:37.328Z,85.10
2019-06-20T17:01:08.383Z,85.40
2019-06-20T17:03:41.976Z,85.40
2019-06-20T17:06:12.310Z,85.50
2019-06-20T17:08:43.458Z,86.20
2019-06-20T17:11:14.299Z,86.70
2019-06-20T17:13:45.145Z,86.70
2019-06-20T17:16:16.148Z,87.50
2019-06-20T17:18:47.702Z,89.00
2019-06-20T17:21:18.804Z,90.20
2019-06-20T17:23:49.791Z,90.50
2019-06-20T17:26:20.521Z,90.80
2019-06-20T17:28:51.894Z,91.00
2019-06-20T17:31:23.514Z,91.00
2019-06-20T17:33:57.735Z,91.00
2019-06-20T17:36:27.949Z,91.00
2019-06-20T17:38:58.941Z,91.30
2019-06-20T17:41:29.959Z,90.80
2019-06-20T17:44:01.225Z,89.10
2019-06-20T17:46:32.528Z,88.70
2019-06-20T17:49:04.203Z,88.90
2019-06-20T17:51:35.347Z,88.90
2019-06-20T17:54:06.840Z,88.80
2019-06-20T17:56:37.883Z,89.10
2019-06-20T17:59:09.412Z,89.50
2019-06-20T18:01:40.925Z,89.00
2019-06-20T18:04:14.068Z,88.90
2019-06-20T18:06:45.502Z,88.70
2019-06-20T18:09:16.934Z,88.90
2019-06-20T18:11:48.679Z,89.30
2019-06-20T18:14:19.651Z,89.50
2019-06-20T18:16:50.960Z,89.80
2019-06-20T18:19:22.517Z,89.70
2019-06-20T18:21:54.078Z,89.40
2019-06-20T18:24:25.696Z,89.70
2019-06-20T18:26:57.208Z,89.90
2019-06-20T18:29:28.733Z,89.90
2019-06-20T18:31:59.781Z,90.00
2019-06-20T18:34:30.684Z,90.00
2019-06-20T18:37:01.487Z,90.40
2019-06-20T18:39:32.621Z,90.60
2019-06-20T18:42:03.809Z,90.80
2019-06-20T18:44:35.375Z,91.10
2019-06-20T18:47:06.158Z,91.30
2019-06-20T18:49:36.953Z,91.50
2019-06-20T18:52:08.537Z,91.50
2019-06-20T18:54:39.579Z,91.50
2019-06-20T18:57:10.661Z,91.60
2019-06-20T18:59:42.004Z,91.60
2019-06-20T19:02:13.335Z,91.70
2019-06-20T19:04:49.514Z,91.90
2019-06-20T19:07:19.880Z,92.20
2019-06-20T19:09:51.321Z,92.40
2019-06-20T19:12:22.886Z,92.60
2019-06-20T19:14:54.499Z,92.80
2019-06-20T19:17:26.081Z,92.90
2019-06-20T19:19:57.508Z,93.00
2019-06-20T19:22:29.087Z,93.10
2019-06-20T19:25:03.694Z,93.20
2019-06-20T19:27:45.582Z,93.30
2019-06-20T19:30:06.969Z,93.50
2019-06-20T19:32:37.778Z,93.60
2019-06-20T19:35:10.584Z,93.70
2019-06-20T19:37:41.672Z,93.80
2019-06-20T19:40:14.328Z,94.00
2019-06-20T19:42:46.730Z,94.10
2019-06-20T19:45:18.181Z,94.30
2019-06-20T19:47:49.204Z,94.40
2019-06-20T19:50:20.867Z,94.50
2019-06-20T19:52:55.730Z,94.70
2019-06-20T19:55:27.104Z,94.70
2019-06-20T19:57:58.701Z,95.20
2019-06-20T20:00:29.750Z,95.20
2019-06-20T20:03:01.487Z,95.50
2019-06-20T20:05:33.210Z,95.60
2019-06-20T20:08:04.368Z,95.80
2019-06-20T20:10:46.964Z,95.70
2019-06-20T20:13:18.508Z,95.90
2019-06-20T20:15:49.631Z,96.00
2019-06-20T20:18:20.774Z,96.10
2019-06-20T20:20:52.170Z,96.20
2019-06-20T20:23:23.616Z,96.50
2019-06-20T20:25:54.669Z,96.70
2019-06-20T20:28:26.009Z,96.80
2019-06-20T20:30:59.596Z,96.80
2019-06-20T20:33:39.366Z,97.00
2019-06-20T20:36:23.932Z,96.90
2019-06-20T20:38:43.983Z,97.00
2019-06-20T20:41:19.842Z,97.00
2019-06-20T20:43:51.184Z,96.90
2019-06-20T20:46:22.614Z,97.00
2019-06-20T20:48:53.710Z,97.10
2019-06-20T20:51:24.835Z,97.00
2019-06-20T20:53:56.027Z,97.20
2019-06-20T20:56:27.486Z,97.50
2019-06-20T20:58:58.682Z,97.50
2019-06-20T21:01:35.323Z,97.50
2019-06-20T21:04:05.154Z,97.50
2019-06-20T21:06:36.224Z,98.10
2019-06-20T21:09:09.217Z,97.80
2019-06-20T21:11:41.450Z,97.90
2019-06-20T21:14:12.634Z,97.80
2019-06-20T21:16:43.685Z,98.20
2019-06-20T21:19:14.980Z,98.40
2019-06-20T21:21:45.993Z,98.50
2019-06-20T21:24:17.800Z,98.50
2019-06-20T21:26:50.278Z,98.50
2019-06-20T21:29:22.107Z,98.70
2019-06-20T21:31:53.630Z,98.90
2019-06-20T21:34:25.008Z,99.00
2019-06-20T21:36:56.320Z,98.90
2019-06-20T21:39:27.253Z,98.90
2019-06-20T21:41:59.018Z,98.80
2019-06-20T21:44:29.834Z,98.70
2019-06-20T21:47:00.922Z,98.70
2019-06-20T21:49:33.502Z,98.70
2019-06-20T21:52:04.593Z,98.60
2019-06-20T21:54:35.445Z,98.70
2019-06-20T21:57:06.575Z,98.90
2019-06-20T21:59:37.966Z,98.90
2019-06-20T22:02:09.762Z,98.90
2019-06-20T22:04:53.801Z,98.80
2019-06-20T22:07:13.207Z,98.90
2019-06-20T22:09:44.694Z,98.90
2019-06-20T22:12:15.793Z,99.00
2019-06-20T22:14:49.398Z,99.00
2019-06-20T22:17:21.191Z,99.10
2019-06-20T22:19:52.241Z,99.30
2019-06-20T22:22:23.048Z,99.50
2019-06-20T22:24:54.299Z,99.60
2019-06-20T22:27:25.033Z,99.50
2019-06-20T22:29:55.793Z,99.80
2019-06-20T22:32:26.937Z,99.90
2019-06-20T22:34:58.252Z,99.90
2019-06-20T22:37:29.828Z,99.90
2019-06-20T22:40:01.168Z,99.90
2019-06-20T22:42:32.144Z,99.90
2019-06-20T22:45:06.917Z,99.90
2019-06-20T22:47:36.165Z,99.90
2019-06-20T22:50:09.022Z,99.90
2019-06-20T22:52:40.149Z,99.90
2019-06-20T22:55:11.410Z,99.90
2019-06-20T22:57:42.817Z,99.90
2019-06-20T23:00:14.687Z,99.90
2019-06-20T23:02:45.707Z,99.90
2019-06-20T23:05:16.907Z,99.90
2019-06-20T23:07:47.615Z,99.90
2019-06-20T23:10:19.129Z,99.90
2019-06-20T23:12:49.864Z,99.90
2019-06-20T23:15:21.444Z,99.90
2019-06-20T23:17:52.168Z,99.90
2019-06-20T23:20:24.153Z,99.90
2019-06-20T23:22:55.364Z,99.90
2019-06-20T23:25:26.628Z,99.90
2019-06-20T23:27:58.046Z,99.90
2019-06-20T23:30:29.467Z,99.90
2019-06-20T23:33:00.691Z,99.90
2019-06-20T23:35:31.666Z,99.90
2019-06-20T23:38:02.643Z,99.90
2019-06-20T23:40:34.033Z,99.90
2019-06-20T23:43:05.244Z,99.90
2019-06-20T23:45:36.672Z,99.90
2019-06-20T23:48:08.040Z,99.90
2019-06-20T23:50:39.431Z,99.90
2019-06-20T23:53:17.020Z,99.90
2019-06-20T23:55:49.614Z,99.90
2019-06-20T23:58:20.603Z,99.90
